createdAt,value
2022-08-01T00:00:39.862Z,98254.45
2022-08-01T00:01:44.063Z,98256.80
2022-08-01T00:02:45.918Z,98255.15
2022-08-01T00:03:47.583Z,98256.53
2022-08-01T00:04:49.262Z,98256.90
2022-08-01T00:05:50.891Z,98256.17
2022-08-01T00:06:52.558Z,98256.90
2022-08-01T00:07:54.269Z,98257.74
2022-08-01T00:08:56.334Z,98257.36
2022-08-01T00:09:57.973Z,98259.13
2022-08-01T00:11:02.781Z,98258.09
2022-08-01T00:12:05.881Z,98260.28
2022-08-01T00:13:07.523Z,98262.64
2022-08-01T00:14:10.593Z,98261.73
2022-08-01T00:15:15.080Z,98262.35
2022-08-01T00:16:16.884Z,98262.33
2022-08-01T00:17:18.630Z,98261.89
2022-08-01T00:18:20.289Z,98262.82
2022-08-01T00:19:21.942Z,98263.56
2022-08-01T00:20:23.610Z,98262.95
2022-08-01T00:21:25.294Z,98265.11
2022-08-01T00:22:27.291Z,98261.89
2022-08-01T00:23:28.979Z,98258.55
2022-08-01T00:24:30.708Z,98259.79
2022-08-01T00:25:33.955Z,98259.42
2022-08-01T00:26:36.315Z,98260.70
2022-08-01T00:27:38.103Z,98258.96
2022-08-01T00:28:40.487Z,98258.00
2022-08-01T00:30:09.801Z,98261.34
2022-08-01T00:31:03.934Z,98260.49
2022-08-01T00:32:06.169Z,98257.36
2022-08-01T00:33:08.075Z,98253.80
2022-08-01T00:34:09.741Z,98256.48
2022-08-01T00:35:11.634Z,98257.23
2022-08-01T00:36:13.459Z,98259.38
2022-08-01T00:37:16.209Z,98262.52
2022-08-01T00:38:17.918Z,98259.51
2022-08-01T00:39:19.585Z,98259.88
2022-08-01T00:40:21.337Z,98260.65
2022-08-01T00:41:23.022Z,98260.47
2022-08-01T00:42:24.771Z,98262.61
2022-08-01T00:43:26.554Z,98259.91
2022-08-01T00:44:28.299Z,98263.52
2022-08-01T00:45:30.039Z,98257.59
2022-08-01T00:46:32.406Z,98257.29
2022-08-01T00:47:34.133Z,98255.84
2022-08-01T00:48:35.992Z,98256.45
2022-08-01T00:49:37.804Z,98255.73
2022-08-01T00:50:39.821Z,98258.52
2022-08-01T00:51:41.815Z,98256.14
2022-08-01T00:52:51.526Z,98258.33
2022-08-01T00:53:54.036Z,98257.73
2022-08-01T00:54:56.817Z,98259.29
2022-08-01T00:55:58.541Z,98258.57
2022-08-01T00:57:01.071Z,98260.65
2022-08-01T00:58:05.703Z,98258.99
2022-08-01T00:59:09.468Z,98260.58
2022-08-01T01:00:12.259Z,98265.43
2022-08-01T01:01:14.162Z,98263.67
2022-08-01T01:02:16.073Z,98261.86
2022-08-01T01:03:17.801Z,98262.55
2022-08-01T01:04:19.477Z,98263.20
2022-08-01T01:05:21.792Z,98261.64
2022-08-01T01:06:29.262Z,98263.98
2022-08-01T01:07:49.947Z,98263.99
2022-08-01T01:09:17.237Z,98261.68
2022-08-01T01:10:22.902Z,98263.16
2022-08-01T01:11:36.225Z,98262.73
2022-08-01T01:12:53.190Z,98260.13
2022-08-01T01:14:06.133Z,98261.05
2022-08-01T01:15:12.651Z,98258.30
2022-08-01T01:16:18.374Z,98261.09
2022-08-01T01:17:31.244Z,98261.19
2022-08-01T01:19:01.522Z,98258.15
2022-08-01T01:20:06.875Z,98260.34
2022-08-01T01:21:17.440Z,98258.08
2022-08-01T01:22:47.224Z,98258.13
2022-08-01T01:24:22.957Z,98257.41
2022-08-01T01:25:50.811Z,98259.52
2022-08-01T01:27:19.181Z,98260.40
2022-08-01T01:29:22.529Z,98257.98
2022-08-01T01:30:29.084Z,98257.21
2022-08-01T01:31:38.596Z,98257.16
2022-08-01T01:32:45.845Z,98256.30
2022-08-01T01:33:50.644Z,98255.81
2022-08-01T01:34:56.394Z,98255.25
2022-08-01T01:36:04.277Z,98256.42
2022-08-01T01:37:18.669Z,98255.66
2022-08-01T01:38:34.784Z,98250.66
2022-08-01T01:39:39.528Z,98251.41
2022-08-01T01:40:49.865Z,98252.70
2022-08-01T01:41:55.727Z,98248.98
2022-08-01T01:42:58.370Z,98250.30
2022-08-01T01:44:02.959Z,98246.53
2022-08-01T01:45:08.318Z,98249.75
2022-08-01T01:46:13.441Z,98249.98
2022-08-01T01:47:18.089Z,98252.41
2022-08-01T01:48:22.387Z,98254.66
2022-08-01T01:49:27.909Z,98255.26
2022-08-01T01:50:31.605Z,98254.51
2022-08-01T01:51:34.579Z,98254.48
2022-08-01T01:52:39.056Z,98254.73
2022-08-01T01:53:42.590Z,98257.13
2022-08-01T01:54:49.707Z,98258.92
2022-08-01T01:55:54.678Z,98255.27
2022-08-01T01:57:00.659Z,98258.13
2022-08-01T01:58:02.686Z,98259.48
2022-08-01T01:59:05.573Z,98260.02
2022-08-01T02:00:09.529Z,98261.81
2022-08-01T02:01:14.626Z,98261.99
2022-08-01T02:02:18.745Z,98261.27
2022-08-01T02:03:23.050Z,98256.27
2022-08-01T02:04:28.081Z,98257.59
2022-08-01T02:05:31.012Z,98259.16
2022-08-01T02:06:34.577Z,98257.11
2022-08-01T02:07:39.645Z,98255.38
2022-08-01T02:08:44.928Z,98255.77
2022-08-01T02:09:48.548Z,98255.43
2022-08-01T02:11:13.058Z,98255.98
2022-08-01T02:12:18.678Z,98255.94
2022-08-01T02:13:21.414Z,98255.11
2022-08-01T02:14:24.787Z,98256.27
2022-08-01T02:15:29.043Z,98250.80
2022-08-01T02:16:35.958Z,98254.50
2022-08-01T02:17:44.663Z,98250.73
2022-08-01T02:18:47.012Z,98251.52
2022-08-01T02:19:49.193Z,98253.10
2022-08-01T02:20:54.490Z,98251.57
2022-08-01T02:22:08.908Z,98249.62
2022-08-01T02:23:14.209Z,98247.52
2022-08-01T02:24:30.606Z,98249.25
2022-08-01T02:25:39.622Z,98247.03
2022-08-01T02:27:07.647Z,98247.66
2022-08-01T02:28:33.495Z,98247.09
2022-08-01T02:29:43.024Z,98249.79
2022-08-01T02:30:49.524Z,98247.46
2022-08-01T02:31:55.609Z,98245.73
2022-08-01T02:33:15.794Z,98245.43
2022-08-01T02:34:20.779Z,98250.50
2022-08-01T02:35:29.103Z,98250.60
2022-08-01T02:36:36.285Z,98251.80
2022-08-01T02:37:41.928Z,98250.59
2022-08-01T02:38:48.027Z,98244.94
2022-08-01T02:39:53.700Z,98251.02
2022-08-01T02:41:00.826Z,98251.06
2022-08-01T02:42:07.938Z,98250.58
2022-08-01T02:43:11.809Z,98252.04
2022-08-01T02:44:24.558Z,98254.17
2022-08-01T02:45:27.826Z,98253.08
2022-08-01T02:46:52.726Z,98252.67
2022-08-01T02:48:02.808Z,98251.63
2022-08-01T02:49:08.788Z,98250.36
2022-08-01T02:50:13.459Z,98248.99
2022-08-01T02:51:18.738Z,98248.63
2022-08-01T02:52:24.205Z,98249.26
2022-08-01T02:53:39.126Z,98251.90
2022-08-01T02:54:51.088Z,98251.02
2022-08-01T02:55:54.955Z,98248.60
2022-08-01T02:56:58.477Z,98249.96
2022-08-01T02:58:02.896Z,98251.06
2022-08-01T02:59:10.165Z,98245.95
2022-08-01T03:00:12.534Z,98248.34
2022-08-01T03:01:19.972Z,98251.35
2022-08-01T03:02:25.228Z,98252.13
2022-08-01T03:03:27.266Z,98251.86
2022-08-01T03:04:29.687Z,98250.64
2022-08-01T03:05:33.966Z,98252.70
2022-08-01T03:06:38.345Z,98249.90
2022-08-01T03:07:42.688Z,98251.25
2022-08-01T03:08:47.574Z,98251.31
2022-08-01T03:09:51.677Z,98251.02
2022-08-01T03:10:56.755Z,98251.15
2022-08-01T03:12:05.539Z,98250.27
2022-08-01T03:13:10.588Z,98247.30
2022-08-01T03:14:15.245Z,98250.28
2022-08-01T03:15:19.702Z,98251.38
2022-08-01T03:16:25.211Z,98247.96
2022-08-01T03:17:31.358Z,98244.59
2022-08-01T03:18:36.081Z,98244.38
2022-08-01T03:19:40.183Z,98249.83
2022-08-01T03:20:44.510Z,98248.02
2022-08-01T03:21:49.429Z,98249.33
2022-08-01T03:22:54.408Z,98249.40
2022-08-01T03:24:01.536Z,98251.85
2022-08-01T03:25:04.526Z,98250.50
2022-08-01T03:26:07.341Z,98250.32
2022-08-01T03:27:10.111Z,98248.82
2022-08-01T03:28:16.988Z,98245.40
2022-08-01T03:29:26.478Z,98247.51
2022-08-01T03:30:30.835Z,98246.24
2022-08-01T03:31:36.307Z,98250.89
2022-08-01T03:32:38.267Z,98252.70
2022-08-01T03:33:40.008Z,98255.47
2022-08-01T03:34:41.936Z,98255.73
2022-08-01T03:35:55.231Z,98254.73
2022-08-01T03:37:28.189Z,98256.20
2022-08-01T03:38:36.573Z,98253.44
2022-08-01T03:39:45.326Z,98249.20
2022-08-01T03:41:12.696Z,98250.27
2022-08-01T03:42:20.128Z,98249.11
2022-08-01T03:43:37.613Z,98250.47
2022-08-01T03:44:42.290Z,98248.23
2022-08-01T03:45:54.201Z,98252.16
2022-08-01T03:47:02.552Z,98250.46
2022-08-01T03:48:14.224Z,98252.39
2022-08-01T03:49:22.592Z,98255.38
2022-08-01T03:50:26.055Z,98254.68
2022-08-01T03:51:30.627Z,98255.71
2022-08-01T03:52:35.910Z,98258.45
2022-08-01T03:53:42.462Z,98257.55
2022-08-01T03:54:54.433Z,98259.63
2022-08-01T03:55:59.577Z,98253.92
2022-08-01T03:57:02.875Z,98256.29
2022-08-01T03:58:09.847Z,98261.00
2022-08-01T03:59:13.059Z,98261.09
2022-08-01T04:00:19.284Z,98265.08
2022-08-01T04:01:21.940Z,98264.89
2022-08-01T04:02:24.579Z,98262.41
2022-08-01T04:03:26.996Z,98263.46
2022-08-01T04:04:30.062Z,98261.27
2022-08-01T04:05:32.379Z,98260.41
2022-08-01T04:06:34.129Z,98261.98
2022-08-01T04:07:40.224Z,98261.77
2022-08-01T04:08:42.456Z,98266.41
2022-08-01T04:09:44.269Z,98265.46
2022-08-01T04:10:46.060Z,98267.70
2022-08-01T04:11:48.482Z,98268.20
2022-08-01T04:12:50.426Z,98270.70
2022-08-01T04:13:54.158Z,98271.73
2022-08-01T04:14:57.097Z,98269.14
2022-08-01T04:15:58.729Z,98271.20
2022-08-01T04:17:00.361Z,98273.02
2022-08-01T04:18:02.065Z,98271.21
2022-08-01T04:19:04.209Z,98272.48
2022-08-01T04:20:06.444Z,98274.03
2022-08-01T04:21:08.673Z,98275.25
2022-08-01T04:22:16.560Z,98277.35
2022-08-01T04:23:27.032Z,98275.02
2022-08-01T04:24:32.651Z,98279.56
2022-08-01T04:25:38.121Z,98280.10
2022-08-01T04:26:42.712Z,98280.09
2022-08-01T04:27:51.966Z,98283.21
2022-08-01T04:28:56.388Z,98285.36
2022-08-01T04:30:00.328Z,98283.95
2022-08-01T04:31:06.614Z,98286.67
2022-08-01T04:32:13.861Z,98284.84
2022-08-01T04:33:18.854Z,98280.84
2022-08-01T04:34:25.375Z,98278.77
2022-08-01T04:36:01.888Z,98277.31
2022-08-01T04:36:55.458Z,98275.75
2022-08-01T04:38:00.321Z,98274.54
2022-08-01T04:39:04.870Z,98276.19
2022-08-01T04:40:09.540Z,98274.08
2022-08-01T04:41:14.657Z,98273.17
2022-08-01T04:42:17.217Z,98274.12
2022-08-01T04:43:27.797Z,98272.23
2022-08-01T04:44:32.578Z,98275.86
2022-08-01T04:45:37.368Z,98277.64
2022-08-01T04:46:41.311Z,98273.70
2022-08-01T04:47:44.696Z,98274.52
2022-08-01T04:48:47.194Z,98275.33
2022-08-01T04:49:49.831Z,98271.20
2022-08-01T04:50:52.577Z,98273.66
2022-08-01T04:51:58.717Z,98275.48
2022-08-01T04:53:00.392Z,98275.73
2022-08-01T04:54:02.732Z,98270.88
2022-08-01T04:55:07.176Z,98273.80
2022-08-01T04:56:09.121Z,98271.13
2022-08-01T04:57:10.830Z,98272.33
2022-08-01T04:58:17.676Z,98273.11
2022-08-01T04:59:39.650Z,98276.08
2022-08-01T05:00:41.562Z,98276.30
2022-08-01T05:01:43.251Z,98274.81
2022-08-01T05:02:45.088Z,98276.95
2022-08-01T05:03:46.762Z,98278.08
2022-08-01T05:04:48.419Z,98280.35
2022-08-01T05:05:50.080Z,98275.27
2022-08-01T05:06:51.731Z,98278.23
2022-08-01T05:07:53.386Z,98277.35
2022-08-01T05:08:55.265Z,98278.65
2022-08-01T05:09:56.940Z,98277.60
2022-08-01T05:10:58.645Z,98279.42
2022-08-01T05:12:02.868Z,98278.12
2022-08-01T05:13:04.763Z,98277.81
2022-08-01T05:14:07.576Z,98276.97
2022-08-01T05:15:15.121Z,98278.85
2022-08-01T05:16:17.950Z,98280.60
2022-08-01T05:17:19.628Z,98281.06
2022-08-01T05:18:26.421Z,98282.35
2022-08-01T05:19:32.843Z,98282.77
2022-08-01T05:20:34.604Z,98281.48
2022-08-01T05:21:38.331Z,98279.71
2022-08-01T05:22:40.460Z,98281.83
2022-08-01T05:23:43.567Z,98284.60
2022-08-01T05:24:45.472Z,98284.13
2022-08-01T05:25:56.119Z,98278.35
2022-08-01T05:27:00.891Z,98281.89
2022-08-01T05:28:05.065Z,98276.20
2022-08-01T05:29:07.859Z,98277.30
2022-08-01T05:30:11.086Z,98276.27
2022-08-01T05:31:12.739Z,98277.38
2022-08-01T05:32:14.545Z,98276.86
2022-08-01T05:33:16.219Z,98275.33
2022-08-01T05:34:17.926Z,98275.44
2022-08-01T05:35:19.577Z,98275.34
2022-08-01T05:36:21.238Z,98273.29
2022-08-01T05:37:22.911Z,98273.60
2022-08-01T05:38:24.536Z,98276.34
2022-08-01T05:39:26.214Z,98274.79
2022-08-01T05:40:27.890Z,98275.52
2022-08-01T05:41:29.696Z,98274.05
2022-08-01T05:42:31.430Z,98274.11
2022-08-01T05:43:33.080Z,98282.39
2022-08-01T05:44:34.740Z,98280.40
2022-08-01T05:45:36.418Z,98277.77
2022-08-01T05:46:39.113Z,98276.67
2022-08-01T05:47:42.843Z,98278.15
2022-08-01T05:48:44.858Z,98275.86
2022-08-01T05:49:47.008Z,98275.19
2022-08-01T05:50:48.898Z,98270.85
2022-08-01T05:51:50.566Z,98269.05
2022-08-01T05:52:52.205Z,98267.29
2022-08-01T05:53:54.406Z,98268.17
2022-08-01T05:54:56.004Z,98268.41
2022-08-01T05:55:57.702Z,98263.73
2022-08-01T05:57:02.543Z,98267.30
2022-08-01T05:58:04.462Z,98268.23
2022-08-01T05:59:06.107Z,98270.23
2022-08-01T06:00:08.512Z,98276.04
2022-08-01T06:01:13.497Z,98277.07
2022-08-01T06:02:15.288Z,98279.45
2022-08-01T06:03:17.020Z,98280.77
2022-08-01T06:04:18.763Z,98279.89
2022-08-01T06:05:20.488Z,98280.66
2022-08-01T06:06:25.312Z,98281.58
2022-08-01T06:07:27.349Z,98280.73
2022-08-01T06:08:29.555Z,98273.46
2022-08-01T06:09:31.874Z,98276.00
2022-08-01T06:10:33.765Z,98277.81
2022-08-01T06:11:35.802Z,98277.38
2022-08-01T06:12:37.939Z,98279.79
2022-08-01T06:13:48.320Z,98279.53
2022-08-01T06:14:50.580Z,98277.96
2022-08-01T06:15:52.290Z,98278.39
2022-08-01T06:16:54.070Z,98282.79
2022-08-01T06:17:56.482Z,98283.36
2022-08-01T06:18:58.135Z,98286.06
2022-08-01T06:20:00.456Z,98286.98
2022-08-01T06:21:02.103Z,98288.47
2022-08-01T06:22:04.256Z,98289.31
2022-08-01T06:23:22.464Z,98287.89
2022-08-01T06:24:28.201Z,98290.50
2022-08-01T06:25:30.406Z,98287.99
2022-08-01T06:26:32.292Z,98288.87
2022-08-01T06:27:36.407Z,98287.55
2022-08-01T06:28:39.465Z,98284.48
2022-08-01T06:29:41.182Z,98284.51
2022-08-01T06:30:55.403Z,98287.14
2022-08-01T06:31:57.057Z,98291.80
2022-08-01T06:32:59.624Z,98288.93
2022-08-01T06:34:01.407Z,98291.31
2022-08-01T06:35:03.398Z,98292.64
2022-08-01T06:36:05.166Z,98295.61
2022-08-01T06:37:07.038Z,98296.09
2022-08-01T06:38:09.504Z,98298.98
2022-08-01T06:39:11.134Z,98299.83
2022-08-01T06:40:17.188Z,98299.25
2022-08-01T06:41:19.205Z,98301.87
2022-08-01T06:42:20.870Z,98303.63
2022-08-01T06:43:22.643Z,98299.80
2022-08-01T06:44:24.289Z,98299.84
2022-08-01T06:45:27.847Z,98298.29
2022-08-01T06:46:32.555Z,98298.88
2022-08-01T06:47:38.281Z,98302.63
2022-08-01T06:48:40.366Z,98298.06
2022-08-01T06:49:42.112Z,98292.33
2022-08-01T06:50:43.766Z,98295.17
2022-08-01T06:51:45.506Z,98295.42
2022-08-01T06:52:47.231Z,98295.14
2022-08-01T06:53:48.866Z,98292.06
2022-08-01T06:54:50.793Z,98292.05
2022-08-01T06:55:52.430Z,98296.20
2022-08-01T06:56:54.052Z,98301.48
2022-08-01T06:57:55.693Z,98299.98
2022-08-01T06:59:01.753Z,98299.03
2022-08-01T07:00:09.693Z,98301.58
2022-08-01T07:01:11.477Z,98303.77
2022-08-01T07:02:13.189Z,98300.77
2022-08-01T07:03:14.938Z,98300.94
2022-08-01T07:04:16.577Z,98304.11
2022-08-01T07:05:18.530Z,98302.58
2022-08-01T07:06:20.269Z,98301.05
2022-08-01T07:07:22.004Z,98301.42
2022-08-01T07:08:23.865Z,98301.81
2022-08-01T07:09:25.665Z,98306.20
2022-08-01T07:10:27.368Z,98303.36
2022-08-01T07:11:29.005Z,98302.80
2022-08-01T07:12:30.661Z,98306.50
2022-08-01T07:13:44.076Z,98306.02
2022-08-01T07:14:47.166Z,98301.29
2022-08-01T07:15:48.806Z,98300.66
2022-08-01T07:16:51.304Z,98297.38
2022-08-01T07:17:53.261Z,98296.55
2022-08-01T07:18:54.945Z,98297.98
2022-08-01T07:19:57.808Z,98296.20
2022-08-01T07:20:59.649Z,98296.36
2022-08-01T07:22:01.322Z,98292.84
2022-08-01T07:23:06.095Z,98295.14
2022-08-01T07:24:14.486Z,98295.47
2022-08-01T07:25:16.866Z,98300.87
2022-08-01T07:26:18.541Z,98300.59
2022-08-01T07:27:25.540Z,98300.95
2022-08-01T07:28:29.343Z,98301.74
2022-08-01T07:29:31.017Z,98297.94
2022-08-01T07:30:32.672Z,98295.52
2022-08-01T07:31:34.337Z,98294.52
2022-08-01T07:32:36.062Z,98294.32
2022-08-01T07:33:47.787Z,98298.15
2022-08-01T07:34:51.220Z,98295.73
2022-08-01T07:35:52.934Z,98294.92
2022-08-01T07:36:54.649Z,98295.49
2022-08-01T07:37:56.315Z,98296.26
2022-08-01T07:38:57.978Z,98296.49
2022-08-01T07:40:00.108Z,98296.73
2022-08-01T07:41:01.823Z,98295.63
2022-08-01T07:42:07.331Z,98297.09
2022-08-01T07:43:10.157Z,98294.91
2022-08-01T07:44:11.810Z,98299.09
2022-08-01T07:45:14.185Z,98295.25
2022-08-01T07:46:17.170Z,98295.92
2022-08-01T07:47:25.264Z,98298.52
2022-08-01T07:48:28.030Z,98296.42
2022-08-01T07:49:30.032Z,98298.11
2022-08-01T07:50:34.165Z,98301.71
2022-08-01T07:51:36.010Z,98304.38
2022-08-01T07:52:37.710Z,98302.04
2022-08-01T07:53:39.428Z,98305.97
2022-08-01T07:54:41.086Z,98304.92
2022-08-01T07:55:43.302Z,98300.29
2022-08-01T07:56:47.741Z,98299.08
2022-08-01T07:57:49.593Z,98297.92
2022-08-01T07:58:51.459Z,98300.16
2022-08-01T07:59:53.305Z,98297.52
2022-08-01T08:00:54.982Z,98294.98
2022-08-01T08:01:56.755Z,98294.74
2022-08-01T08:03:00.276Z,98295.70
2022-08-01T08:04:02.228Z,98295.64
2022-08-01T08:05:04.843Z,98294.88
2022-08-01T08:06:07.383Z,98295.92
2022-08-01T08:07:09.475Z,98296.97
2022-08-01T08:08:12.444Z,98295.60
2022-08-01T08:09:15.678Z,98292.58
2022-08-01T08:10:17.504Z,98293.64
2022-08-01T08:11:19.140Z,98294.35
2022-08-01T08:12:28.477Z,98295.65
2022-08-01T08:13:31.598Z,98295.60
2022-08-01T08:14:33.432Z,98296.17
2022-08-01T08:15:35.236Z,98299.05
2022-08-01T08:16:36.941Z,98298.25
2022-08-01T08:17:38.683Z,98299.27
2022-08-01T08:18:40.421Z,98299.80
2022-08-01T08:19:42.121Z,98301.19
2022-08-01T08:20:44.714Z,98303.04
2022-08-01T08:21:46.434Z,98304.41
2022-08-01T08:22:48.098Z,98301.06
2022-08-01T08:24:08.092Z,98302.11
2022-08-01T08:25:12.525Z,98303.48
2022-08-01T08:26:14.164Z,98302.73
2022-08-01T08:27:16.171Z,98300.95
2022-08-01T08:28:17.967Z,98299.73
2022-08-01T08:29:20.175Z,98302.30
2022-08-01T08:30:22.000Z,98294.30
2022-08-01T08:31:25.621Z,98295.65
2022-08-01T08:32:45.964Z,98295.41
2022-08-01T08:33:47.606Z,98293.95
2022-08-01T08:34:49.282Z,98296.70
2022-08-01T08:35:53.652Z,98295.11
2022-08-01T08:36:58.866Z,98296.52
2022-08-01T08:38:00.839Z,98300.05
2022-08-01T08:39:04.333Z,98300.78
2022-08-01T08:40:07.447Z,98298.73
2022-08-01T08:41:10.628Z,98302.83
2022-08-01T08:42:12.913Z,98303.15
2022-08-01T08:43:17.225Z,98298.30
2022-08-01T08:44:21.068Z,98301.77
2022-08-01T08:45:23.162Z,98305.46
2022-08-01T08:46:47.562Z,98305.86
2022-08-01T08:47:51.030Z,98306.51
2022-08-01T08:48:53.469Z,98307.54
2022-08-01T08:49:57.493Z,98306.95
2022-08-01T08:51:02.353Z,98304.32
2022-08-01T08:52:08.899Z,98304.09
2022-08-01T08:53:18.363Z,98301.98
2022-08-01T08:54:30.851Z,98307.23
2022-08-01T08:55:33.143Z,98308.52
2022-08-01T08:56:56.102Z,98311.63
2022-08-01T08:57:58.834Z,98310.20
2022-08-01T08:59:02.125Z,98312.84
2022-08-01T09:00:04.652Z,98313.74
2022-08-01T09:01:08.061Z,98313.88
2022-08-01T09:02:10.799Z,98313.41
2022-08-01T09:03:13.290Z,98309.30
2022-08-01T09:04:15.513Z,98309.94
2022-08-01T09:05:19.833Z,98314.56
2022-08-01T09:06:21.753Z,98313.54
2022-08-01T09:07:26.333Z,98308.42
2022-08-01T09:08:28.045Z,98306.14
2022-08-01T09:09:29.723Z,98310.62
2022-08-01T09:10:31.401Z,98311.30
2022-08-01T09:11:34.901Z,98314.17
2022-08-01T09:12:38.562Z,98315.98
2022-08-01T09:13:45.279Z,98312.00
2022-08-01T09:14:50.647Z,98313.22
2022-08-01T09:15:54.974Z,98317.49
2022-08-01T09:17:11.799Z,98319.70
2022-08-01T09:18:41.516Z,98322.46
2022-08-01T09:19:50.255Z,98321.23
2022-08-01T09:20:51.970Z,98322.11
2022-08-01T09:22:02.719Z,98325.34
2022-08-01T09:23:04.742Z,98324.14
2022-08-01T09:24:18.715Z,98325.28
2022-08-01T09:25:51.529Z,98327.39
2022-08-01T09:26:55.129Z,98325.31
2022-08-01T09:28:07.281Z,98319.54
2022-08-01T09:29:34.702Z,98319.48
2022-08-01T09:30:40.782Z,98318.92
2022-08-01T09:31:47.713Z,98318.82
2022-08-01T09:32:55.845Z,98321.70
2022-08-01T09:34:05.067Z,98321.99
2022-08-01T09:35:36.241Z,98321.63
2022-08-01T09:36:45.746Z,98323.19
2022-08-01T09:37:47.542Z,98317.97
2022-08-01T09:38:51.550Z,98320.31
2022-08-01T09:39:58.421Z,98324.22
2022-08-01T09:41:01.873Z,98317.48
2022-08-01T09:42:28.343Z,98318.73
2022-08-01T09:43:32.759Z,98322.45
2022-08-01T09:44:44.757Z,98321.87
2022-08-01T09:45:49.132Z,98324.68
2022-08-01T09:46:55.044Z,98318.74
2022-08-01T09:47:56.815Z,98321.67
2022-08-01T09:49:02.271Z,98320.11
2022-08-01T09:50:11.235Z,98316.13
2022-08-01T09:51:13.971Z,98314.07
2022-08-01T09:52:35.630Z,98318.44
2022-08-01T09:53:43.452Z,98316.10
2022-08-01T09:55:00.690Z,98317.88
2022-08-01T09:56:13.520Z,98316.23
2022-08-01T09:57:18.899Z,98320.73
2022-08-01T09:58:21.614Z,98323.41
2022-08-01T09:59:56.748Z,98322.69
2022-08-01T10:01:01.155Z,98325.31
2022-08-01T10:02:02.825Z,98329.61
2022-08-01T10:03:25.399Z,98324.66
2022-08-01T10:04:28.505Z,98326.31
2022-08-01T10:05:37.158Z,98325.80
2022-08-01T10:06:43.563Z,98324.88
2022-08-01T10:08:07.943Z,98324.42
2022-08-01T10:09:10.291Z,98326.61
2022-08-01T10:10:16.054Z,98320.56
2022-08-01T10:11:18.723Z,98322.79
2022-08-01T10:12:24.658Z,98321.83
2022-08-01T10:13:36.571Z,98320.88
2022-08-01T10:14:41.007Z,98323.23
2022-08-01T10:15:43.551Z,98323.45
2022-08-01T10:16:53.621Z,98322.63
2022-08-01T10:18:02.170Z,98323.15
2022-08-01T10:19:14.567Z,98320.89
2022-08-01T10:20:30.512Z,98320.35
2022-08-01T10:21:56.713Z,98321.72
2022-08-01T10:23:05.844Z,98321.65
2022-08-01T10:24:12.105Z,98322.13
2022-08-01T10:25:18.800Z,98322.81
2022-08-01T10:26:41.953Z,98324.95
2022-08-01T10:27:46.484Z,98324.15
2022-08-01T10:28:49.844Z,98323.29
2022-08-01T10:30:05.140Z,98319.39
2022-08-01T10:31:12.582Z,98319.70
2022-08-01T10:32:18.289Z,98320.94
2022-08-01T10:33:51.200Z,98320.02
2022-08-01T10:34:46.480Z,98314.92
2022-08-01T10:35:48.635Z,98315.09
2022-08-01T10:36:50.636Z,98316.79
2022-08-01T10:37:57.487Z,98316.11
2022-08-01T10:38:59.560Z,98309.27
2022-08-01T10:40:28.695Z,98312.00
2022-08-01T10:41:27.394Z,98311.77
2022-08-01T10:42:30.322Z,98313.41
2022-08-01T10:43:32.213Z,98311.67
2022-08-01T10:44:35.022Z,98309.86
2022-08-01T10:45:37.037Z,98308.61
2022-08-01T10:46:40.722Z,98307.26
2022-08-01T10:48:14.270Z,98304.80
2022-08-01T10:49:21.274Z,98305.40
2022-08-01T10:50:34.695Z,98305.33
2022-08-01T10:51:51.267Z,98302.63
2022-08-01T10:53:15.256Z,98298.77
2022-08-01T10:54:27.836Z,98298.98
2022-08-01T10:55:29.603Z,98295.52
2022-08-01T10:56:41.715Z,98296.69
2022-08-01T10:57:52.639Z,98296.80
2022-08-01T10:59:06.088Z,98299.33
2022-08-01T11:00:09.339Z,98297.77
2022-08-01T11:01:30.450Z,98295.64
2022-08-01T11:02:41.658Z,98293.39
2022-08-01T11:03:58.369Z,98298.05
2022-08-01T11:05:14.332Z,98299.16
2022-08-01T11:06:18.611Z,98303.23
2022-08-01T11:07:35.564Z,98300.11
2022-08-01T11:08:39.241Z,98301.31
2022-08-01T11:09:50.849Z,98297.66
2022-08-01T11:11:02.228Z,98300.40
2022-08-01T11:12:08.170Z,98302.96
2022-08-01T11:13:15.479Z,98297.05
2022-08-01T11:14:22.677Z,98296.44
2022-08-01T11:15:31.499Z,98297.17
2022-08-01T11:16:36.366Z,98293.55
2022-08-01T11:17:48.466Z,98291.76
2022-08-01T11:18:54.191Z,98296.36
2022-08-01T11:20:19.266Z,98296.91
2022-08-01T11:21:58.918Z,98298.99
2022-08-01T11:22:58.527Z,98298.60
2022-08-01T11:24:00.227Z,98297.42
2022-08-01T11:25:02.260Z,98298.52
2022-08-01T11:26:06.040Z,98303.17
2022-08-01T11:27:33.553Z,98297.36
2022-08-01T11:28:36.856Z,98299.15
2022-08-01T11:29:42.229Z,98296.95
2022-08-01T11:30:49.450Z,98306.33
2022-08-01T11:31:52.739Z,98303.86
2022-08-01T11:33:12.809Z,98301.66
2022-08-01T11:34:16.107Z,98299.23
2022-08-01T11:35:21.699Z,98302.28
2022-08-01T11:36:56.760Z,98301.95
2022-08-01T11:37:45.616Z,98298.61
2022-08-01T11:38:49.581Z,98301.34
2022-08-01T11:40:24.981Z,98298.05
2022-08-01T11:41:39.038Z,98304.73
2022-08-01T11:42:41.079Z,98305.95
2022-08-01T11:44:00.715Z,98304.79
2022-08-01T11:45:04.302Z,98304.27
2022-08-01T11:46:06.823Z,98305.84
2022-08-01T11:47:11.662Z,98303.73
2022-08-01T11:48:27.582Z,98306.14
2022-08-01T11:49:39.330Z,98299.52
2022-08-01T11:50:42.177Z,98303.64
2022-08-01T11:51:44.349Z,98298.96
2022-08-01T11:52:47.129Z,98297.39
2022-08-01T11:53:50.408Z,98296.66
2022-08-01T11:54:56.966Z,98298.78
2022-08-01T11:56:00.702Z,98299.20
2022-08-01T11:57:06.156Z,98300.53
2022-08-01T11:58:22.549Z,98297.52
2022-08-01T11:59:38.025Z,98301.86
2022-08-01T12:00:43.962Z,98299.89
2022-08-01T12:01:49.098Z,98299.90
2022-08-01T12:03:00.213Z,98300.45
2022-08-01T12:04:02.210Z,98300.06
2022-08-01T12:05:11.878Z,98298.31
2022-08-01T12:06:13.994Z,98300.66
2022-08-01T12:07:16.368Z,98299.34
2022-08-01T12:08:34.198Z,98296.68
2022-08-01T12:09:35.831Z,98295.70
2022-08-01T12:10:49.409Z,98297.67
2022-08-01T12:11:51.698Z,98298.33
2022-08-01T12:13:00.780Z,98294.77
2022-08-01T12:14:02.657Z,98296.90
2022-08-01T12:15:09.898Z,98294.35
2022-08-01T12:16:12.308Z,98296.65
2022-08-01T12:17:14.140Z,98295.16
2022-08-01T12:18:15.949Z,98299.21
2022-08-01T12:19:25.594Z,98297.05
2022-08-01T12:20:31.204Z,98296.94
2022-08-01T12:21:33.480Z,98294.36
2022-08-01T12:22:35.361Z,98293.58
2022-08-01T12:23:36.989Z,98291.58
2022-08-01T12:24:41.926Z,98294.23
2022-08-01T12:25:48.266Z,98292.06
2022-08-01T12:26:49.938Z,98287.45
2022-08-01T12:27:56.000Z,98289.88
2022-08-01T12:28:58.368Z,98292.52
2022-08-01T12:30:02.254Z,98289.03
2022-08-01T12:31:04.089Z,98289.06
2022-08-01T12:32:27.962Z,98289.35
2022-08-01T12:33:37.214Z,98290.40
2022-08-01T12:34:39.064Z,98289.99
2022-08-01T12:35:42.617Z,98283.66
2022-08-01T12:36:45.071Z,98284.91
2022-08-01T12:37:55.573Z,98286.34
2022-08-01T12:39:00.275Z,98283.04
2022-08-01T12:40:10.493Z,98286.27
2022-08-01T12:41:12.663Z,98288.77
2022-08-01T12:42:15.709Z,98283.63
2022-08-01T12:43:27.907Z,98289.23
2022-08-01T12:44:32.058Z,98286.60
2022-08-01T12:45:40.671Z,98285.37
2022-08-01T12:46:56.591Z,98289.70
2022-08-01T12:48:00.567Z,98290.66
2022-08-01T12:49:02.693Z,98287.08
2022-08-01T12:50:08.645Z,98282.66
2022-08-01T12:51:12.626Z,98285.39
2022-08-01T12:52:15.912Z,98284.77
2022-08-01T12:53:19.701Z,98283.80
2022-08-01T12:54:25.781Z,98289.25
2022-08-01T12:55:34.385Z,98290.89